»·PEaware :: N321KL KBFL-KCMA

N321KL :: KBFL-KCMA

FLIGHT INFORMATION

Flight Status: Arrived
Operator: Privately registered:
United States
More flights under this callsign
Pilot: Rafael F. (17538)
Aircraft: PIPER PA-28 CHEROKEE ARCHER
(PA28)
More flights by this aircraft type
Origin: KBFL Meadows
United States
Destination: KCMA Camarillo
United States
More flights between these airports :: More routes between these airports
Route: +
File this flight plan on PilotEdge
Remarks:
Altitude:
(Current/Filed)
7,500ft
Speed:
(Current/Filed)
150kts
Departed: 05-Jan-18 04:07 PM
Arrived: 05-Jan-18 04:46 PM
Distance/Time
Traveled:
73nm/0:38
Distance/Time
To Go:
Arrived

Flight Plot

Page will automatically refresh every two minutes.


Map Options




Map Legend


Flown Route
Filed Route
Departure Airport
Arrival Airport
Navaid (VOR, NDB)
Fix

Horizontal Profiles

Position Reports

Time Latitude Longitude Heading Altitude Ground
Speed
05-Jan-18 16:01 35.429371 -119.046101 226 494ft 0kts
05-Jan-18 16:02 35.429371 -119.046101 226 494ft 0kts
05-Jan-18 16:03 35.429371 -119.046101 226 494ft 0kts
05-Jan-18 16:04 35.429371 -119.046101 226 494ft 0kts
05-Jan-18 16:05 35.429370 -119.046101 225 494ft 0kts
05-Jan-18 16:06 35.429370 -119.046101 225 494ft 0kts
05-Jan-18 16:07 35.429370 -119.046101 225 494ft 0kts
05-Jan-18 16:08 35.429370 -119.046101 225 494ft 0kts
05-Jan-18 16:09 35.429370 -119.046101 225 494ft 0kts
05-Jan-18 16:10 35.429370 -119.046101 225 494ft 0kts
05-Jan-18 16:11 35.427027 -119.045738 135 483ft 16kts
05-Jan-18 16:12 35.425700 -119.044766 226 479ft 0kts
05-Jan-18 16:13 35.426801 -119.047671 313 478ft 55kts
05-Jan-18 16:14 35.445277 -119.070328 319 1469ft 106kts
05-Jan-18 16:15 35.438512 -119.095023 181 2661ft 113kts
05-Jan-18 16:16 35.409488 -119.092822 160 3936ft 103kts
05-Jan-18 16:17 35.383666 -119.082087 170 4961ft 103kts
05-Jan-18 16:18 35.353498 -119.079458 178 5832ft 111kts
05-Jan-18 16:19 35.321592 -119.078331 178 6473ft 120kts
05-Jan-18 16:20 35.287954 -119.077374 179 7097ft 121kts
05-Jan-18 16:21 35.254549 -119.076897 178 7794ft 114kts
05-Jan-18 16:22 35.224078 -119.076540 178 8661ft 109kts
05-Jan-18 16:23 35.194553 -119.076914 179 9599ft 100kts
05-Jan-18 16:24 35.167030 -119.077118 176 10392ft 110kts
05-Jan-18 16:25 35.137212 -119.075019 175 11159ft 105kts
05-Jan-18 16:26 35.106076 -119.071399 178 11605ft 122kts
05-Jan-18 16:27 35.072067 -119.071713 179 12001ft 125kts
05-Jan-18 16:28 35.037322 -119.072104 179 12377ft 126kts
05-Jan-18 16:29 35.002286 -119.072501 179 12728ft 126kts
05-Jan-18 16:30 34.967045 -119.072901 180 13048ft 127kts
05-Jan-18 16:31 34.931028 -119.073308 180 13181ft 138kts
05-Jan-18 16:32 34.894505 -119.073712 180 13291ft 136kts
05-Jan-18 16:33 34.856500 -119.074134 180 13353ft 136kts
05-Jan-18 16:34 34.818554 -119.074403 179 13407ft 136kts
05-Jan-18 16:35 34.780246 -119.074964 181 13410ft 138kts
05-Jan-18 16:36 34.741931 -119.076209 181 13435ft 138kts
05-Jan-18 16:37 34.703644 -119.077454 181 13456ft 138kts
05-Jan-18 16:38 34.665222 -119.078705 181 13477ft 138kts
05-Jan-18 16:39 34.626991 -119.079951 181 13494ft 138kts
05-Jan-18 16:40 34.588485 -119.081206 181 13507ft 138kts
05-Jan-18 16:41 34.550201 -119.082456 181 13520ft 138kts
05-Jan-18 16:42 34.511778 -119.083710 181 13531ft 138kts
05-Jan-18 16:43 34.473260 -119.084969 181 13541ft 138kts
05-Jan-18 16:44 34.434844 -119.086226 181 13549ft 138kts
05-Jan-18 16:45 34.397089 -119.087407 181 12996ft 141kts
05-Jan-18 16:46 34.360381 -119.088388 181 11649ft 134kts
05-Jan-18 16:47 34.324490 -119.089312 181 9994ft 128kts
05-Jan-18 16:48 34.284425 -119.084778 168 6116ft 184kts
05-Jan-18 16:49 34.242418 -119.069658 161 2372ft 141kts
05-Jan-18 16:50 34.214558 -119.064570 238 286ft 80kts
05-Jan-18 16:51 34.213715 -119.090040 271 70ft 55kts
05-Jan-18 16:52 34.212893 -119.095612 201 64ft 0kts
05-Jan-18 16:53 34.212881 -119.095618 201 64ft 1kts
05-Jan-18 16:54 34.211002 -119.094116 90 65ft 13kts
05-Jan-18 16:55 34.210777 -119.092887 354 66ft 0kts
05-Jan-18 16:56 34.210777 -119.092887 354 66ft 0kts
05-Jan-18 16:57 34.210777 -119.092887 354 66ft 0kts
05-Jan-18 16:58 34.210777 -119.092887 354 66ft 0kts
05-Jan-18 16:59 34.210777 -119.092887 354 66ft 0kts
05-Jan-18 17:00 34.210777 -119.092887 354 66ft 0kts

Navigation Log

Ident Type
1. KBFL Airport
2. KCMA Airport